createdAt,value
2017-10-12T00:00:01.684Z,13.90
2017-10-12T00:02:29.208Z,13.90
2017-10-12T00:04:57.474Z,13.90
2017-10-12T00:07:25.906Z,13.90
2017-10-12T00:09:53.406Z,13.90
2017-10-12T00:12:20.920Z,13.90
2017-10-12T00:14:48.533Z,13.90
2017-10-12T00:17:16.024Z,13.90
2017-10-12T00:19:43.512Z,13.90
2017-10-12T00:22:11.017Z,13.90
2017-10-12T00:24:39.265Z,14.00
2017-10-12T00:27:06.776Z,14.00
2017-10-12T00:29:34.263Z,14.10
2017-10-12T00:32:02.567Z,14.30
2017-10-12T00:34:30.835Z,14.50
2017-10-12T00:37:00.528Z,14.60
2017-10-12T00:39:28.003Z,14.60
2017-10-12T00:41:55.493Z,14.60
2017-10-12T00:44:23.733Z,14.70
2017-10-12T00:46:51.318Z,14.80
2017-10-12T00:49:19.571Z,14.80
2017-10-12T00:51:47.052Z,14.80
2017-10-12T00:54:15.356Z,14.90
2017-10-12T00:56:43.658Z,14.90
2017-10-12T00:59:11.142Z,14.90
2017-10-12T01:01:38.748Z,14.90
2017-10-12T01:04:07.102Z,14.80
2017-10-12T01:06:35.625Z,14.90
2017-10-12T01:09:03.078Z,14.90
2017-10-12T01:11:31.294Z,14.90
2017-10-12T01:13:58.790Z,14.90
2017-10-12T01:16:26.296Z,14.90
2017-10-12T01:18:53.778Z,14.90
2017-10-12T01:21:22.005Z,14.90
2017-10-12T01:23:49.526Z,14.90
2017-10-12T01:26:17.760Z,14.90
2017-10-12T01:28:45.258Z,14.90
2017-10-12T01:31:13.713Z,14.90
2017-10-12T01:33:41.218Z,14.90
2017-10-12T01:36:08.708Z,14.90
2017-10-12T01:38:36.226Z,14.90
2017-10-12T01:41:03.759Z,14.90
2017-10-12T01:43:31.281Z,14.90
2017-10-12T01:45:58.773Z,15.00
2017-10-12T01:48:38.880Z,15.00
2017-10-12T01:51:06.378Z,15.00
2017-10-12T01:53:33.837Z,15.00
2017-10-12T01:56:02.090Z,15.10
2017-10-12T01:58:29.570Z,15.10
2017-10-12T02:00:57.810Z,15.10
2017-10-12T02:03:25.298Z,15.10
2017-10-12T02:05:52.765Z,15.10
2017-10-12T02:08:21.060Z,15.10
2017-10-12T02:10:48.856Z,15.10
2017-10-12T02:13:16.374Z,15.10
2017-10-12T02:15:44.678Z,15.10
2017-10-12T02:18:12.147Z,15.10
2017-10-12T02:20:39.640Z,15.10
2017-10-12T02:23:07.113Z,15.10
2017-10-12T02:25:35.483Z,15.10
2017-10-12T02:28:02.962Z,15.10
2017-10-12T02:30:30.497Z,15.20
2017-10-12T02:32:58.037Z,15.20
2017-10-12T02:35:25.498Z,15.20
2017-10-12T02:37:52.994Z,15.20
2017-10-12T02:40:20.481Z,15.20
2017-10-12T02:42:47.976Z,15.30
2017-10-12T02:45:15.594Z,15.30
2017-10-12T02:47:43.164Z,15.30
2017-10-12T02:50:10.646Z,15.30
2017-10-12T02:52:38.149Z,15.30
2017-10-12T02:55:05.709Z,15.50
2017-10-12T02:57:33.998Z,15.60
2017-10-12T03:00:01.522Z,15.50
2017-10-12T03:02:29.746Z,15.50
2017-10-12T03:04:57.247Z,15.50
2017-10-12T03:07:24.903Z,15.50
2017-10-12T03:09:52.399Z,15.50
2017-10-12T03:12:20.939Z,15.40
2017-10-12T03:14:48.418Z,15.40
2017-10-12T03:17:16.742Z,15.40
2017-10-12T03:19:44.226Z,15.30
2017-10-12T03:22:11.693Z,15.30
2017-10-12T03:24:39.183Z,15.30
2017-10-12T03:27:07.843Z,15.30
2017-10-12T03:29:35.305Z,15.30
2017-10-12T03:32:03.541Z,15.30
2017-10-12T03:34:31.040Z,15.30
2017-10-12T03:37:00.175Z,15.20
2017-10-12T03:39:27.948Z,15.20
2017-10-12T03:41:55.407Z,15.10
2017-10-12T03:44:22.868Z,15.10
2017-10-12T03:46:50.392Z,15.10
2017-10-12T03:49:17.990Z,15.00
2017-10-12T03:51:45.454Z,15.00
2017-10-12T03:54:12.955Z,14.90
2017-10-12T03:56:41.226Z,14.90
2017-10-12T03:59:09.659Z,14.80
2017-10-12T04:01:37.156Z,14.80
2017-10-12T04:04:05.376Z,14.90
2017-10-12T04:06:32.891Z,14.80
2017-10-12T04:09:00.416Z,14.90
2017-10-12T04:11:28.939Z,14.90
2017-10-12T04:13:57.176Z,15.00
2017-10-12T04:16:24.654Z,15.00
2017-10-12T04:18:52.117Z,15.00
2017-10-12T04:21:19.620Z,15.10
2017-10-12T04:23:47.107Z,15.10
2017-10-12T04:26:14.600Z,15.10
2017-10-12T04:28:43.540Z,15.00
2017-10-12T04:31:11.013Z,15.00
2017-10-12T04:33:38.554Z,15.00
2017-10-12T04:36:06.997Z,15.00
2017-10-12T04:38:35.288Z,15.00
2017-10-12T04:41:02.789Z,15.00
2017-10-12T04:43:30.435Z,15.00
2017-10-12T04:45:57.923Z,14.90
2017-10-12T04:48:25.427Z,15.00
2017-10-12T04:50:52.913Z,14.90
2017-10-12T04:53:21.312Z,14.80
2017-10-12T04:55:48.833Z,14.70
2017-10-12T04:58:16.659Z,14.70
2017-10-12T05:00:45.068Z,14.60
2017-10-12T05:03:13.275Z,14.50
2017-10-12T05:05:40.785Z,14.50
2017-10-12T05:08:09.060Z,14.50
2017-10-12T05:10:37.284Z,14.40
2017-10-12T05:13:04.765Z,14.40
2017-10-12T05:15:32.983Z,14.50
2017-10-12T05:18:00.461Z,14.40
2017-10-12T05:20:27.932Z,14.50
2017-10-12T05:22:55.410Z,14.50
2017-10-12T05:25:22.906Z,14.50
2017-10-12T05:27:51.009Z,14.60
2017-10-12T05:30:18.489Z,14.70
2017-10-12T05:32:45.975Z,14.70
2017-10-12T05:35:14.268Z,14.70
2017-10-12T05:37:41.767Z,14.70
2017-10-12T05:40:09.275Z,14.80
2017-10-12T05:42:36.762Z,14.80
2017-10-12T05:45:04.411Z,14.70
2017-10-12T05:47:32.160Z,14.70
2017-10-12T05:50:00.457Z,14.60
2017-10-12T05:52:27.969Z,14.60
2017-10-12T05:54:55.471Z,14.60
2017-10-12T05:57:22.971Z,14.60
2017-10-12T05:59:50.450Z,14.60
2017-10-12T06:02:19.233Z,14.50
2017-10-12T06:04:47.510Z,14.50
2017-10-12T06:07:15.761Z,14.50
2017-10-12T06:09:43.385Z,14.50
2017-10-12T06:12:10.908Z,14.50
2017-10-12T06:14:38.562Z,14.60
2017-10-12T06:17:07.052Z,14.70
2017-10-12T06:19:35.621Z,14.70
2017-10-12T06:22:04.053Z,14.70
2017-10-12T06:24:31.724Z,14.70
2017-10-12T06:26:59.292Z,14.70
2017-10-12T06:29:26.853Z,14.70
2017-10-12T06:31:54.435Z,14.60
2017-10-12T06:34:22.048Z,14.60
2017-10-12T06:36:49.700Z,14.60
2017-10-12T06:39:17.485Z,14.50
2017-10-12T06:41:45.031Z,14.50
2017-10-12T06:44:12.584Z,14.50
2017-10-12T06:46:40.110Z,14.40
2017-10-12T06:49:08.554Z,14.50
2017-10-12T06:51:36.090Z,14.40
2017-10-12T06:54:03.619Z,14.50
2017-10-12T06:56:32.043Z,14.70
2017-10-12T06:58:59.569Z,14.70
2017-10-12T07:01:27.870Z,14.70
2017-10-12T07:03:55.436Z,14.70
2017-10-12T07:06:23.005Z,14.70
2017-10-12T07:08:50.541Z,14.80
2017-10-12T07:11:18.215Z,14.70
2017-10-12T07:13:45.824Z,14.70
2017-10-12T07:16:14.172Z,14.70
2017-10-12T07:18:41.707Z,14.70
2017-10-12T07:21:09.582Z,14.70
2017-10-12T07:23:37.125Z,14.70
2017-10-12T07:26:04.789Z,14.70
2017-10-12T07:28:32.322Z,14.70
2017-10-12T07:31:00.626Z,14.80
2017-10-12T07:33:28.154Z,14.80
2017-10-12T07:35:56.427Z,14.80
2017-10-12T07:38:24.800Z,14.70
2017-10-12T07:40:53.456Z,14.60
2017-10-12T07:43:21.061Z,14.60
2017-10-12T07:45:49.414Z,14.70
2017-10-12T07:48:17.749Z,14.70
2017-10-12T07:50:45.339Z,14.70
2017-10-12T07:53:12.849Z,14.70
2017-10-12T07:55:40.658Z,14.80
2017-10-12T07:58:08.255Z,14.70
2017-10-12T08:00:36.297Z,14.60
2017-10-12T08:03:04.011Z,14.60
2017-10-12T08:05:31.532Z,14.50
2017-10-12T08:07:59.765Z,14.70
2017-10-12T08:10:27.264Z,14.70
2017-10-12T08:12:55.519Z,14.90
2017-10-12T08:15:23.099Z,14.90
2017-10-12T08:17:51.353Z,15.10
2017-10-12T08:20:18.894Z,15.10
2017-10-12T08:22:46.374Z,14.90
2017-10-12T08:25:13.913Z,14.90
2017-10-12T08:27:41.468Z,14.80
2017-10-12T08:30:09.006Z,14.60
2017-10-12T08:32:36.484Z,14.50
2017-10-12T08:35:04.048Z,14.50
2017-10-12T08:37:31.579Z,14.60
2017-10-12T08:39:59.140Z,14.60
2017-10-12T08:42:26.682Z,14.80
2017-10-12T08:44:54.162Z,15.00
2017-10-12T08:47:21.656Z,15.00
2017-10-12T08:49:49.241Z,15.00
2017-10-12T08:52:16.937Z,15.00
2017-10-12T08:54:44.452Z,14.90
2017-10-12T08:57:13.475Z,14.90
2017-10-12T08:59:40.994Z,14.90
2017-10-12T09:02:08.529Z,14.90
2017-10-12T09:04:36.291Z,14.80
2017-10-12T09:07:04.031Z,14.80
2017-10-12T09:09:31.568Z,14.80
2017-10-12T09:11:59.860Z,14.90
2017-10-12T09:14:27.354Z,14.90
2017-10-12T09:16:54.846Z,15.20
2017-10-12T09:19:23.125Z,15.50
2017-10-12T09:21:51.346Z,15.70
2017-10-12T09:24:18.848Z,15.70
2017-10-12T09:26:47.865Z,16.10
2017-10-12T09:29:16.097Z,16.10
2017-10-12T09:31:43.559Z,16.10
2017-10-12T09:34:11.847Z,16.00
2017-10-12T09:36:40.194Z,16.00
2017-10-12T09:39:07.684Z,15.90
2017-10-12T09:41:35.205Z,15.80
2017-10-12T09:44:02.665Z,15.80
2017-10-12T09:46:30.240Z,15.80
2017-10-12T09:48:57.878Z,15.80
2017-10-12T09:51:25.391Z,15.80
2017-10-12T09:53:54.464Z,15.70
2017-10-12T09:56:22.117Z,15.70
2017-10-12T09:58:49.587Z,15.70
2017-10-12T10:01:17.053Z,15.70
2017-10-12T10:03:44.841Z,15.70
2017-10-12T10:06:12.805Z,15.70
2017-10-12T10:08:41.079Z,15.90
2017-10-12T10:11:09.328Z,15.90
2017-10-12T10:13:36.864Z,15.90
2017-10-12T10:16:04.332Z,16.00
2017-10-12T10:18:31.826Z,16.10
2017-10-12T10:21:00.701Z,16.40
2017-10-12T10:23:28.978Z,16.40
2017-10-12T10:25:58.005Z,16.60
2017-10-12T10:28:25.489Z,16.60
2017-10-12T10:30:53.094Z,16.70
2017-10-12T10:33:21.344Z,16.70
2017-10-12T10:35:48.907Z,16.70
2017-10-12T10:38:16.437Z,16.80
2017-10-12T10:40:43.937Z,16.90
2017-10-12T10:43:12.255Z,16.80
2017-10-12T10:45:39.734Z,16.80
2017-10-12T10:48:07.213Z,16.90
2017-10-12T10:50:34.719Z,17.00
2017-10-12T10:53:02.206Z,17.00
2017-10-12T10:55:29.753Z,17.00
2017-10-12T10:57:57.313Z,17.00
2017-10-12T11:00:24.852Z,17.00
2017-10-12T11:02:52.321Z,17.00
2017-10-12T11:05:19.934Z,17.00
2017-10-12T11:07:48.218Z,17.10
2017-10-12T11:10:16.450Z,17.20
2017-10-12T11:12:44.090Z,17.20
2017-10-12T11:15:11.557Z,17.20
2017-10-12T11:17:39.110Z,17.10
2017-10-12T11:20:06.868Z,17.30
2017-10-12T11:22:34.408Z,17.30
2017-10-12T11:25:02.652Z,17.50
2017-10-12T11:27:30.269Z,17.50
2017-10-12T11:29:57.780Z,17.60
2017-10-12T11:32:25.311Z,17.40
2017-10-12T11:34:52.787Z,17.40
2017-10-12T11:37:20.265Z,17.30
2017-10-12T11:39:48.489Z,17.40
2017-10-12T11:42:15.995Z,17.30
2017-10-12T11:44:43.486Z,17.30
2017-10-12T11:47:10.996Z,17.50
2017-10-12T11:49:38.612Z,17.50
2017-10-12T11:52:06.094Z,17.40
2017-10-12T11:54:33.554Z,17.30
2017-10-12T11:57:01.126Z,17.20
2017-10-12T11:59:28.619Z,17.30
2017-10-12T12:01:56.111Z,17.40
2017-10-12T12:04:23.577Z,17.60
2017-10-12T12:06:51.036Z,17.60
2017-10-12T12:09:18.526Z,17.60
2017-10-12T12:11:46.207Z,17.50
2017-10-12T12:14:14.447Z,17.30
2017-10-12T12:16:41.963Z,17.20
2017-10-12T12:19:09.568Z,17.30
2017-10-12T12:21:37.853Z,17.20
2017-10-12T12:24:05.340Z,17.20
2017-10-12T12:26:32.876Z,17.10
2017-10-12T12:29:01.111Z,17.20
2017-10-12T12:31:28.604Z,17.20
2017-10-12T12:33:56.884Z,17.30
2017-10-12T12:36:25.129Z,17.20
2017-10-12T12:38:52.616Z,17.20
2017-10-12T12:41:21.111Z,17.00
2017-10-12T12:43:49.415Z,17.00
2017-10-12T12:46:17.810Z,16.90
2017-10-12T12:48:45.438Z,16.80
2017-10-12T12:51:12.916Z,16.80
2017-10-12T12:53:41.156Z,16.90
2017-10-12T12:56:09.562Z,16.90
2017-10-12T12:58:37.041Z,16.90
2017-10-12T13:01:04.542Z,16.90
2017-10-12T13:03:32.831Z,16.90
2017-10-12T13:06:01.094Z,16.90
2017-10-12T13:08:29.353Z,17.00
2017-10-12T13:10:58.519Z,16.90
2017-10-12T13:13:26.156Z,16.90
2017-10-12T13:15:53.673Z,17.00
2017-10-12T13:18:21.228Z,17.10
2017-10-12T13:20:48.819Z,17.10
2017-10-12T13:23:16.331Z,17.10
2017-10-12T13:25:43.967Z,17.20
2017-10-12T13:28:11.754Z,17.30
2017-10-12T13:30:39.295Z,17.10
2017-10-12T13:33:06.897Z,17.00
2017-10-12T13:35:34.416Z,17.00
2017-10-12T13:38:01.914Z,17.00
2017-10-12T13:40:30.194Z,17.00
2017-10-12T13:42:57.710Z,17.00
2017-10-12T13:45:25.202Z,17.10
2017-10-12T13:47:52.761Z,17.10
2017-10-12T13:50:20.225Z,17.00
2017-10-12T13:52:47.741Z,17.00
2017-10-12T13:55:15.234Z,17.00
2017-10-12T13:57:42.802Z,17.00
2017-10-12T14:00:11.092Z,16.90
2017-10-12T14:02:39.353Z,16.90
2017-10-12T14:05:06.854Z,16.90
2017-10-12T14:07:34.431Z,16.80
2017-10-12T14:10:01.929Z,16.80
2017-10-12T14:12:29.424Z,16.80
2017-10-12T14:14:56.902Z,16.70
2017-10-12T14:17:24.398Z,16.70
2017-10-12T14:19:51.918Z,16.70
2017-10-12T14:22:20.177Z,16.80
2017-10-12T14:24:48.282Z,16.80
2017-10-12T14:27:15.809Z,16.90
2017-10-12T14:29:43.428Z,16.90
2017-10-12T14:32:10.880Z,16.90
2017-10-12T14:34:38.463Z,16.90
2017-10-12T14:37:05.982Z,16.90
2017-10-12T14:39:33.480Z,16.80
2017-10-12T14:42:01.782Z,16.90
2017-10-12T14:44:29.932Z,16.90
2017-10-12T14:46:57.436Z,16.80
2017-10-12T14:49:25.796Z,16.80
2017-10-12T14:51:53.301Z,16.80
2017-10-12T14:54:20.765Z,16.80
2017-10-12T14:56:49.779Z,16.80
2017-10-12T14:59:17.240Z,16.80
2017-10-12T15:01:44.717Z,16.70
2017-10-12T15:04:12.296Z,16.70
2017-10-12T15:06:39.903Z,16.70
2017-10-12T15:09:08.745Z,16.70
2017-10-12T15:11:36.504Z,16.70
2017-10-12T15:14:04.020Z,16.70
2017-10-12T15:16:32.267Z,16.70
2017-10-12T15:19:00.593Z,16.70
2017-10-12T15:21:28.096Z,16.80
2017-10-12T15:23:55.582Z,16.70
2017-10-12T15:26:23.932Z,16.70
2017-10-12T15:28:51.441Z,16.70
2017-10-12T15:31:18.923Z,16.60
2017-10-12T15:33:46.586Z,16.60
2017-10-12T15:36:14.148Z,16.50
2017-10-12T15:38:41.665Z,16.50
2017-10-12T15:41:10.134Z,16.30
2017-10-12T15:43:38.533Z,16.30
2017-10-12T15:46:06.046Z,16.30
2017-10-12T15:48:34.078Z,16.30
2017-10-12T15:51:01.637Z,16.20
2017-10-12T15:53:29.137Z,16.10
2017-10-12T15:55:56.655Z,16.00
2017-10-12T15:58:24.159Z,16.00
2017-10-12T16:00:52.440Z,15.80
2017-10-12T16:03:20.734Z,15.70
2017-10-12T16:05:48.270Z,15.70
2017-10-12T16:08:15.809Z,15.60
2017-10-12T16:10:43.289Z,15.60
2017-10-12T16:13:10.818Z,15.50
2017-10-12T16:15:38.368Z,15.40
2017-10-12T16:18:05.932Z,15.30
2017-10-12T16:20:33.471Z,15.20
2017-10-12T16:23:00.953Z,15.10
2017-10-12T16:25:28.461Z,15.00
2017-10-12T16:27:56.794Z,14.60
2017-10-12T16:30:24.329Z,14.60
2017-10-12T16:33:06.827Z,14.60
2017-10-12T16:35:19.415Z,14.50
2017-10-12T16:37:46.993Z,14.30
2017-10-12T16:40:14.550Z,14.30
2017-10-12T16:45:09.594Z,14.10
2017-10-12T16:47:37.721Z,14.00
2017-10-12T16:50:05.979Z,13.90
2017-10-12T16:52:34.270Z,14.00
2017-10-12T16:55:01.791Z,14.00
2017-10-12T16:57:29.475Z,14.10
2017-10-12T16:59:57.915Z,14.30
2017-10-12T17:02:26.096Z,14.30
2017-10-12T17:04:53.615Z,14.10
2017-10-12T17:07:21.947Z,13.90
2017-10-12T17:09:49.527Z,13.80
2017-10-12T17:12:17.115Z,13.70
2017-10-12T17:14:44.614Z,13.60
2017-10-12T17:17:13.336Z,13.60
2017-10-12T17:19:41.608Z,13.60
2017-10-12T17:22:10.848Z,13.70
2017-10-12T17:24:38.610Z,13.60
2017-10-12T17:27:06.127Z,13.60
2017-10-12T17:29:34.414Z,13.40
2017-10-12T17:32:02.728Z,13.30
2017-10-12T17:34:30.224Z,13.30
2017-10-12T17:36:57.790Z,13.20
2017-10-12T17:39:25.417Z,13.20
2017-10-12T17:41:53.173Z,13.10
2017-10-12T17:44:20.732Z,13.00
2017-10-12T17:46:48.225Z,13.00
2017-10-12T17:49:15.772Z,13.00
2017-10-12T17:51:43.399Z,12.90
2017-10-12T17:54:38.962Z,12.90
2017-10-12T17:56:41.108Z,12.80
2017-10-12T17:59:08.671Z,12.80
2017-10-12T18:01:36.934Z,12.70
2017-10-12T18:04:04.735Z,12.70
2017-10-12T18:06:33.021Z,12.70
2017-10-12T18:09:01.483Z,12.60
2017-10-12T18:11:29.028Z,12.60
2017-10-12T18:13:56.560Z,12.60
2017-10-12T18:16:24.078Z,12.50
2017-10-12T18:18:52.520Z,12.40
2017-10-12T18:21:20.010Z,12.40
2017-10-12T18:23:48.944Z,12.30
2017-10-12T18:26:16.675Z,12.30
2017-10-12T18:28:44.224Z,12.20
2017-10-12T18:31:12.663Z,12.10
2017-10-12T18:33:40.157Z,12.10
2017-10-12T18:36:07.676Z,12.00
2017-10-12T18:38:35.337Z,11.90
2017-10-12T18:41:02.860Z,11.90
2017-10-12T18:43:30.535Z,11.90
2017-10-12T18:45:58.171Z,11.80
2017-10-12T18:48:26.414Z,11.80
2017-10-12T18:50:54.046Z,11.80
2017-10-12T18:53:23.000Z,11.80
2017-10-12T18:55:51.282Z,11.70
2017-10-12T18:58:18.814Z,11.70
2017-10-12T19:00:46.357Z,11.70
2017-10-12T19:03:13.885Z,11.60
2017-10-12T19:05:41.397Z,11.70
2017-10-12T19:08:09.684Z,11.60
2017-10-12T19:10:38.049Z,11.60
2017-10-12T19:13:06.353Z,11.60
2017-10-12T19:15:33.928Z,11.50
2017-10-12T19:18:01.537Z,11.50
2017-10-12T19:20:29.795Z,11.50
2017-10-12T19:25:25.899Z,11.50
2017-10-12T19:27:53.419Z,11.50
2017-10-12T19:30:20.890Z,11.50
2017-10-12T19:32:49.200Z,11.50
2017-10-12T19:35:17.194Z,11.50
2017-10-12T19:37:44.739Z,11.50
2017-10-12T19:40:12.265Z,11.50
2017-10-12T19:42:39.778Z,11.50
2017-10-12T19:45:07.350Z,11.40
2017-10-12T19:47:34.982Z,11.40
2017-10-12T19:50:02.498Z,11.40
2017-10-12T19:52:30.790Z,11.40
2017-10-12T19:54:58.318Z,11.30
2017-10-12T19:57:26.551Z,11.30
2017-10-12T19:59:54.212Z,11.30
2017-10-12T20:02:21.705Z,11.30
2017-10-12T20:04:51.005Z,11.10
2017-10-12T20:07:18.533Z,11.10
2017-10-12T20:09:46.092Z,11.10
2017-10-12T20:12:13.556Z,11.10
2017-10-12T20:14:41.048Z,11.00
2017-10-12T20:17:08.860Z,10.90
2017-10-12T20:19:36.410Z,11.00
2017-10-12T20:22:19.682Z,11.00
2017-10-12T20:24:47.185Z,10.90
2017-10-12T20:27:14.707Z,10.90
2017-10-12T20:29:42.237Z,11.00
2017-10-12T20:32:09.893Z,11.00
2017-10-12T20:34:39.203Z,10.90
2017-10-12T20:37:06.693Z,10.90
2017-10-12T20:39:34.930Z,10.90
2017-10-12T20:42:17.446Z,10.90
2017-10-12T20:44:29.995Z,10.80
2017-10-12T20:46:58.246Z,10.70
2017-10-12T20:49:25.752Z,10.70
2017-10-12T20:51:53.286Z,10.70
2017-10-12T20:54:22.159Z,10.80
2017-10-12T20:56:50.564Z,10.80
2017-10-12T20:59:18.137Z,10.80
2017-10-12T21:01:45.696Z,10.90
2017-10-12T21:04:13.210Z,10.90
2017-10-12T21:06:40.850Z,10.90
2017-10-12T21:09:08.329Z,10.80
2017-10-12T21:11:36.646Z,10.60
2017-10-12T21:14:04.338Z,10.60
2017-10-12T21:16:31.800Z,10.60
2017-10-12T21:18:59.392Z,10.60
2017-10-12T21:21:27.766Z,10.60
2017-10-12T21:23:55.342Z,10.60
2017-10-12T21:26:23.603Z,10.70
2017-10-12T21:28:51.123Z,10.70
2017-10-12T21:31:18.620Z,10.60
2017-10-12T21:33:47.019Z,10.60
2017-10-12T21:36:15.326Z,10.60
2017-10-12T21:38:42.788Z,10.60
2017-10-12T21:41:10.386Z,10.70
2017-10-12T21:43:37.906Z,10.80
2017-10-12T21:46:05.465Z,10.90
2017-10-12T21:48:32.949Z,10.90
2017-10-12T21:51:00.434Z,10.80
2017-10-12T21:53:28.022Z,10.70
2017-10-12T21:55:55.527Z,10.60
2017-10-12T21:58:23.011Z,10.70
2017-10-12T22:00:51.317Z,10.70
2017-10-12T22:03:18.814Z,10.60
2017-10-12T22:05:46.349Z,10.70
2017-10-12T22:08:13.839Z,10.80
2017-10-12T22:10:41.465Z,10.90
2017-10-12T22:13:09.658Z,11.00
2017-10-12T22:15:37.149Z,11.10
2017-10-12T22:18:05.620Z,11.10
2017-10-12T22:20:33.106Z,11.10
2017-10-12T22:23:01.407Z,11.20
2017-10-12T22:25:28.972Z,11.10
2017-10-12T22:27:57.081Z,11.20
2017-10-12T22:30:24.592Z,11.30
2017-10-12T22:32:52.081Z,11.30
2017-10-12T22:35:19.588Z,11.30
2017-10-12T22:37:47.716Z,11.30
2017-10-12T22:40:15.188Z,11.40
2017-10-12T22:42:42.707Z,11.40
2017-10-12T22:45:10.247Z,11.40
2017-10-12T22:47:37.885Z,11.60
2017-10-12T22:50:06.127Z,11.60
2017-10-12T22:52:33.628Z,11.60
2017-10-12T22:55:01.110Z,11.60
2017-10-12T22:57:28.815Z,11.70
2017-10-12T22:59:56.654Z,11.70
2017-10-12T23:02:24.156Z,11.70
2017-10-12T23:04:52.432Z,11.70
2017-10-12T23:07:20.762Z,11.70
2017-10-12T23:09:48.407Z,11.70
2017-10-12T23:12:15.916Z,11.70
2017-10-12T23:14:43.402Z,11.70
2017-10-12T23:17:10.906Z,11.70
2017-10-12T23:19:38.428Z,11.70
2017-10-12T23:22:05.957Z,11.70
2017-10-12T23:24:34.224Z,11.80
2017-10-12T23:27:02.458Z,11.70
2017-10-12T23:29:30.224Z,11.80
2017-10-12T23:31:58.173Z,11.70
2017-10-12T23:34:25.667Z,11.70
2017-10-12T23:36:54.094Z,11.70
2017-10-12T23:39:21.635Z,11.60
2017-10-12T23:41:50.030Z,11.50
2017-10-12T23:44:17.515Z,11.50
2017-10-12T23:46:45.155Z,11.40
2017-10-12T23:49:12.658Z,11.40
2017-10-12T23:51:40.203Z,11.30
2017-10-12T23:54:08.088Z,11.20
2017-10-12T23:56:35.868Z,11.20
2017-10-12T23:59:03.368Z,11.20
